createdAt,value
2023-02-24T00:00:38.480Z,12.27
2023-02-24T00:05:42.810Z,13.27
2023-02-24T00:10:44.517Z,15.82
2023-02-24T00:15:46.111Z,15.13
2023-02-24T00:20:48.054Z,14.18
2023-02-24T00:25:57.906Z,13.50
2023-02-24T00:31:11.467Z,14.73
2023-02-24T00:36:24.692Z,10.40
2023-02-24T00:41:29.390Z,16.30
2023-02-24T00:46:31.593Z,16.42
2023-02-24T00:51:39.100Z,12.18
2023-02-24T00:56:45.317Z,11.57
2023-02-24T01:01:49.422Z,13.60
2023-02-24T01:07:00.118Z,10.45
2023-02-24T01:12:21.946Z,10.18
2023-02-24T01:17:23.683Z,14.57
2023-02-24T01:22:25.234Z,7.82
2023-02-24T01:27:26.814Z,8.07
2023-02-24T01:32:29.047Z,10.02
2023-02-24T01:37:30.715Z,13.90
2023-02-24T01:42:32.906Z,8.13
2023-02-24T01:47:34.434Z,9.80
2023-02-24T01:52:37.546Z,9.32
2023-02-24T01:57:39.683Z,9.48
2023-02-24T02:02:45.767Z,8.00
2023-02-24T02:07:47.370Z,6.97
2023-02-24T02:12:51.287Z,8.50
2023-02-24T02:18:05.041Z,9.10
2023-02-24T02:23:35.603Z,7.53
2023-02-24T02:28:58.383Z,8.35
2023-02-24T02:34:33.405Z,11.95
2023-02-24T02:39:44.316Z,10.52
2023-02-24T02:45:14.568Z,10.38
2023-02-24T02:50:29.809Z,11.07
2023-02-24T02:55:53.461Z,8.85
2023-02-24T03:01:02.447Z,10.55
2023-02-24T03:06:14.588Z,7.63
2023-02-24T03:11:17.694Z,7.85
2023-02-24T03:16:23.114Z,7.00
2023-02-24T03:21:51.843Z,9.98
2023-02-24T03:27:23.090Z,10.43
2023-02-24T03:32:34.287Z,11.45
2023-02-24T03:37:36.920Z,11.50
2023-02-24T03:42:43.239Z,13.88
2023-02-24T03:47:47.576Z,13.75
2023-02-24T03:53:16.236Z,10.82
2023-02-24T03:58:21.328Z,11.57
2023-02-24T04:03:32.465Z,11.90
2023-02-24T04:08:53.801Z,9.95
2023-02-24T04:14:06.502Z,8.30
2023-02-24T04:19:14.300Z,14.10
2023-02-24T04:24:21.367Z,8.00
2023-02-24T04:29:25.704Z,10.55
2023-02-24T04:34:32.368Z,13.25
2023-02-24T04:39:38.389Z,13.23
2023-02-24T04:44:39.917Z,13.68
2023-02-24T04:49:41.395Z,16.65
2023-02-24T04:54:44.510Z,11.95
2023-02-24T04:59:46.933Z,16.00
2023-02-24T05:04:49.752Z,24.40
2023-02-24T05:09:51.303Z,14.85
2023-02-24T05:14:52.822Z,14.98
2023-02-24T05:20:12.882Z,17.15
2023-02-24T05:25:14.409Z,19.60
2023-02-24T05:30:15.973Z,18.08
2023-02-24T05:35:17.668Z,16.55
2023-02-24T05:40:20.844Z,20.73
2023-02-24T05:45:22.607Z,17.98
2023-02-24T05:50:26.474Z,14.95
2023-02-24T05:55:27.932Z,21.55
2023-02-24T06:00:29.460Z,19.20
2023-02-24T06:05:31.003Z,16.63
2023-02-24T06:10:34.360Z,19.90
2023-02-24T06:15:37.432Z,15.18
2023-02-24T06:20:39.250Z,17.55
2023-02-24T06:25:41.825Z,21.63
2023-02-24T06:30:43.399Z,16.50
2023-02-24T06:35:44.939Z,22.88
2023-02-24T06:40:47.512Z,17.15
2023-02-24T06:45:50.184Z,29.98
2023-02-24T06:50:51.887Z,21.95
2023-02-24T06:55:53.371Z,20.75
2023-02-24T07:00:57.785Z,21.50
2023-02-24T07:06:20.308Z,15.07
2023-02-24T07:11:22.154Z,17.38
2023-02-24T07:16:25.238Z,28.67
2023-02-24T07:21:30.178Z,24.25
2023-02-24T07:26:31.938Z,19.25
2023-02-24T07:31:34.530Z,21.50
2023-02-24T07:36:49.111Z,21.90
2023-02-24T07:41:53.242Z,23.20
2023-02-24T07:46:55.076Z,28.00
2023-02-24T07:51:57.997Z,21.08
2023-02-24T07:57:00.000Z,27.58
2023-02-24T08:02:04.753Z,22.83
2023-02-24T08:07:14.325Z,26.90
2023-02-24T08:12:21.612Z,33.00
2023-02-24T08:17:26.476Z,22.65
2023-02-24T08:22:35.983Z,26.98
2023-02-24T08:27:40.732Z,29.38
2023-02-24T08:32:46.928Z,27.27
2023-02-24T08:37:52.063Z,32.47
2023-02-24T08:42:53.554Z,25.60
2023-02-24T08:48:00.556Z,27.15
2023-02-24T08:53:02.076Z,20.03
2023-02-24T08:58:03.614Z,18.77
2023-02-24T09:03:08.291Z,23.85
2023-02-24T09:08:09.842Z,16.45
2023-02-24T09:13:12.237Z,25.65
2023-02-24T09:18:14.388Z,24.88
2023-02-24T09:23:20.200Z,26.60
2023-02-24T09:28:26.700Z,19.15
2023-02-24T09:33:29.800Z,26.73
2023-02-24T09:38:57.181Z,26.83
2023-02-24T09:44:07.604Z,20.75
2023-02-24T09:49:17.352Z,27.67
2023-02-24T09:54:24.660Z,26.92
2023-02-24T10:00:23.106Z,24.02
2023-02-24T10:05:38.464Z,27.77
2023-02-24T10:11:00.580Z,18.63
2023-02-24T10:16:07.136Z,20.05
2023-02-24T10:21:48.175Z,23.70
2023-02-24T10:27:01.210Z,35.97
2023-02-24T10:32:41.350Z,42.97
2023-02-24T10:37:43.023Z,32.97
2023-02-24T10:42:47.895Z,44.15
2023-02-24T10:47:57.857Z,33.95
2023-02-24T10:53:26.735Z,42.95
2023-02-24T10:58:53.282Z,42.88
2023-02-24T11:04:12.271Z,32.45
2023-02-24T11:09:29.217Z,40.42
2023-02-24T11:14:50.641Z,47.90
2023-02-24T11:20:18.015Z,47.97
2023-02-24T11:25:24.645Z,34.57
2023-02-24T11:30:46.148Z,37.03
2023-02-24T11:36:25.158Z,37.58
2023-02-24T11:41:41.060Z,45.92
2023-02-24T11:46:50.087Z,41.72
2023-02-24T11:51:53.218Z,44.45
2023-02-24T11:56:59.402Z,48.45
2023-02-24T12:02:19.129Z,42.92
2023-02-24T12:07:54.790Z,31.98
2023-02-24T12:13:11.180Z,46.70
2023-02-24T12:18:33.969Z,36.28
2023-02-24T12:23:44.609Z,35.22
2023-02-24T12:29:30.059Z,33.10
2023-02-24T12:34:47.468Z,34.10
2023-02-24T12:40:00.661Z,34.00
2023-02-24T12:45:19.834Z,21.23
2023-02-24T12:50:30.952Z,23.80
2023-02-24T12:55:50.656Z,18.08
2023-02-24T13:01:10.710Z,23.67
2023-02-24T13:06:20.715Z,33.47
2023-02-24T13:11:49.904Z,27.95
2023-02-24T13:16:51.584Z,30.05
2023-02-24T13:22:21.735Z,32.30
2023-02-24T13:27:29.253Z,27.70
2023-02-24T13:32:34.782Z,18.85
2023-02-24T13:37:41.228Z,16.25
2023-02-24T13:43:01.725Z,11.10
2023-02-24T13:48:36.980Z,11.30
2023-02-24T13:54:05.622Z,9.60
2023-02-24T13:59:44.823Z,12.90
2023-02-24T14:04:52.209Z,14.05
2023-02-24T14:10:00.390Z,16.67
2023-02-24T14:15:04.120Z,10.52
2023-02-24T14:20:08.932Z,15.15
2023-02-24T14:25:11.921Z,12.75
2023-02-24T14:30:40.156Z,15.18
2023-02-24T14:40:48.898Z,15.40
2023-02-24T14:45:52.828Z,20.05
2023-02-24T14:51:02.718Z,16.17
2023-02-24T14:56:06.260Z,15.75
2023-02-24T15:01:30.485Z,21.25
2023-02-24T15:06:40.713Z,25.02
2023-02-24T15:11:43.738Z,18.20
2023-02-24T15:16:49.405Z,12.80
2023-02-24T15:21:50.972Z,15.40
2023-02-24T15:27:23.894Z,16.67
2023-02-24T15:32:27.711Z,23.17
2023-02-24T15:37:41.827Z,22.85
2023-02-24T15:42:50.741Z,22.35
2023-02-24T15:47:54.952Z,27.90
2023-02-24T15:52:59.566Z,21.83
2023-02-24T15:58:03.321Z,21.83
2023-02-24T16:03:04.949Z,23.85
2023-02-24T16:08:19.780Z,23.02
2023-02-24T16:13:23.916Z,24.00
2023-02-24T16:18:25.956Z,26.55
2023-02-24T16:23:27.555Z,17.38
2023-02-24T16:28:31.650Z,11.75
2023-02-24T16:33:48.019Z,21.33
2023-02-24T16:38:55.030Z,17.52
2023-02-24T16:43:56.521Z,23.17
2023-02-24T16:48:57.997Z,19.58
2023-02-24T16:53:59.516Z,19.30
2023-02-24T16:59:01.034Z,18.45
2023-02-24T17:04:05.214Z,19.60
2023-02-24T17:09:07.184Z,18.30
2023-02-24T17:14:16.964Z,25.02
2023-02-24T17:19:18.493Z,26.30
2023-02-24T17:24:21.604Z,24.38
2023-02-24T17:29:23.131Z,33.28
2023-02-24T17:34:24.650Z,29.85
2023-02-24T17:39:26.234Z,41.28
2023-02-24T17:44:28.113Z,31.73
2023-02-24T17:49:31.121Z,37.83
2023-02-24T17:54:33.044Z,35.70
2023-02-24T17:59:35.968Z,35.78
2023-02-24T18:04:37.742Z,45.90
2023-02-24T18:09:39.258Z,46.42
2023-02-24T18:14:40.854Z,39.83
2023-02-24T18:19:42.473Z,38.75
2023-02-24T18:24:44.073Z,37.28
2023-02-24T18:29:45.612Z,27.98
2023-02-24T18:34:47.132Z,32.17
2023-02-24T18:39:48.685Z,32.47
2023-02-24T18:44:50.186Z,29.83
2023-02-24T18:49:51.704Z,29.05
2023-02-24T18:54:53.201Z,28.15
2023-02-24T18:59:54.787Z,23.42
2023-02-24T19:04:56.387Z,25.98
2023-02-24T19:09:57.896Z,22.33
2023-02-24T19:14:59.421Z,16.13
2023-02-24T19:20:00.954Z,21.90
2023-02-24T19:25:02.508Z,26.65
2023-02-24T19:30:04.848Z,25.02
2023-02-24T19:35:07.641Z,22.38
2023-02-24T19:40:09.822Z,28.90
2023-02-24T19:45:11.420Z,23.23
2023-02-24T19:50:15.161Z,21.45
2023-02-24T19:55:16.702Z,21.33
2023-02-24T20:00:20.810Z,19.40
2023-02-24T20:05:22.788Z,9.63
2023-02-24T20:10:24.332Z,20.70
2023-02-24T20:15:25.821Z,18.90
2023-02-24T20:20:27.342Z,15.55
2023-02-24T20:25:29.042Z,14.10
2023-02-24T20:30:30.781Z,13.15
2023-02-24T20:35:32.401Z,11.48
2023-02-24T20:40:34.160Z,18.63
2023-02-24T20:45:38.068Z,24.63
2023-02-24T20:50:39.707Z,29.23
2023-02-24T20:55:41.267Z,20.83
2023-02-24T21:00:44.356Z,22.95
2023-02-24T21:05:45.887Z,21.55
2023-02-24T21:10:47.472Z,24.80
2023-02-24T21:15:53.557Z,21.83
2023-02-24T21:20:55.065Z,30.20
2023-02-24T21:25:56.661Z,11.73
2023-02-24T21:30:58.401Z,16.90
2023-02-24T21:36:03.262Z,16.92
2023-02-24T21:41:07.282Z,19.08
2023-02-24T21:46:09.081Z,25.92
2023-02-24T21:51:13.583Z,19.17
2023-02-24T21:56:18.366Z,20.10
2023-02-24T22:01:25.618Z,22.48
2023-02-24T22:06:31.265Z,26.98
2023-02-24T22:11:36.017Z,27.35
2023-02-24T22:16:38.143Z,31.15
2023-02-24T22:21:42.371Z,25.67
2023-02-24T22:26:44.370Z,21.15
2023-02-24T22:31:49.533Z,24.10
2023-02-24T22:36:51.372Z,24.10
2023-02-24T22:41:52.929Z,20.55
2023-02-24T22:46:54.533Z,17.38
2023-02-24T22:51:56.164Z,20.67
2023-02-24T22:56:57.639Z,20.55
2023-02-24T23:01:59.754Z,24.83
2023-02-24T23:07:02.280Z,23.98
2023-02-24T23:12:04.041Z,25.30
2023-02-24T23:17:05.620Z,20.73
2023-02-24T23:22:07.956Z,15.60
2023-02-24T23:27:09.864Z,15.35
2023-02-24T23:32:11.485Z,20.52
2023-02-24T23:37:14.380Z,22.85
2023-02-24T23:42:18.123Z,17.73
2023-02-24T23:47:19.653Z,21.25
2023-02-24T23:52:21.266Z,31.48
2023-02-24T23:57:23.058Z,21.98
